sensor_id;sensor_type;location;lat;lon;timestamp;P1;durP1;ratioP1;P2;durP2;ratioP2
33593;SDS011;19920;52.242;20.940;2023-01-13T00:01:07;14.68;;;6.38;;
33593;SDS011;19920;52.242;20.940;2023-01-13T00:03:37;13.90;;;5.78;;
33593;SDS011;19920;52.242;20.940;2023-01-13T00:06:03;14.32;;;6.55;;
33593;SDS011;19920;52.242;20.940;2023-01-13T00:08:31;11.73;;;5.78;;
33593;SDS011;19920;52.242;20.940;2023-01-13T00:10:57;15.82;;;8.30;;
33593;SDS011;19920;52.242;20.940;2023-01-13T00:13:23;22.13;;;9.57;;
33593;SDS011;19920;52.242;20.940;2023-01-13T00:15:58;15.85;;;8.15;;
33593;SDS011;19920;52.242;20.940;2023-01-13T00:18:24;18.08;;;8.77;;
33593;SDS011;19920;52.242;20.940;2023-01-13T00:23:33;14.82;;;7.40;;
33593;SDS011;19920;52.242;20.940;2023-01-13T00:26:00;13.70;;;6.30;;
33593;SDS011;19920;52.242;20.940;2023-01-13T00:28:28;17.53;;;6.60;;
33593;SDS011;19920;52.242;20.940;2023-01-13T00:30:54;12.23;;;5.93;;
33593;SDS011;19920;52.242;20.940;2023-01-13T00:33:23;12.20;;;6.25;;
33593;SDS011;19920;52.242;20.940;2023-01-13T00:35:55;11.48;;;6.10;;
33593;SDS011;19920;52.242;20.940;2023-01-13T00:38:22;13.52;;;6.63;;
33593;SDS011;19920;52.242;20.940;2023-01-13T00:40:55;10.95;;;6.00;;
33593;SDS011;19920;52.242;20.940;2023-01-13T00:43:29;16.50;;;6.22;;
33593;SDS011;19920;52.242;20.940;2023-01-13T00:45:56;11.77;;;6.05;;
33593;SDS011;19920;52.242;20.940;2023-01-13T00:48:22;13.00;;;6.25;;
33593;SDS011;19920;52.242;20.940;2023-01-13T00:53:22;16.60;;;6.88;;
33593;SDS011;19920;52.242;20.940;2023-01-13T00:55:47;14.15;;;6.60;;
33593;SDS011;19920;52.242;20.940;2023-01-13T00:58:13;12.75;;;5.97;;
33593;SDS011;19920;52.242;20.940;2023-01-13T01:00:39;12.23;;;5.70;;
33593;SDS011;19920;52.242;20.940;2023-01-13T01:03:06;14.52;;;6.20;;
33593;SDS011;19920;52.242;20.940;2023-01-13T01:05:36;15.20;;;6.82;;
33593;SDS011;19920;52.242;20.940;2023-01-13T01:08:03;11.77;;;6.18;;
33593;SDS011;19920;52.242;20.940;2023-01-13T01:10:29;17.02;;;6.72;;
33593;SDS011;19920;52.242;20.940;2023-01-13T01:12:55;12.80;;;6.63;;
33593;SDS011;19920;52.242;20.940;2023-01-13T01:15:20;15.35;;;6.80;;
33593;SDS011;19920;52.242;20.940;2023-01-13T01:17:46;14.02;;;6.15;;
33593;SDS011;19920;52.242;20.940;2023-01-13T01:20:11;13.45;;;5.85;;
33593;SDS011;19920;52.242;20.940;2023-01-13T01:22:37;15.38;;;6.03;;
33593;SDS011;19920;52.242;20.940;2023-01-13T01:25:03;13.73;;;6.70;;
33593;SDS011;19920;52.242;20.940;2023-01-13T01:27:29;15.57;;;6.10;;
33593;SDS011;19920;52.242;20.940;2023-01-13T01:29:54;14.55;;;6.53;;
33593;SDS011;19920;52.242;20.940;2023-01-13T01:32:20;14.35;;;6.22;;
33593;SDS011;19920;52.242;20.940;2023-01-13T01:34:45;12.25;;;6.38;;
33593;SDS011;19920;52.242;20.940;2023-01-13T01:37:11;14.15;;;6.32;;
33593;SDS011;19920;52.242;20.940;2023-01-13T01:39:37;14.52;;;5.95;;
33593;SDS011;19920;52.242;20.940;2023-01-13T01:42:02;16.70;;;6.55;;
33593;SDS011;19920;52.242;20.940;2023-01-13T01:45:00;14.00;;;6.10;;
33593;SDS011;19920;52.242;20.940;2023-01-13T01:47:34;10.93;;;5.55;;
33593;SDS011;19920;52.242;20.940;2023-01-13T01:50:00;18.20;;;6.88;;
33593;SDS011;19920;52.242;20.940;2023-01-13T01:52:33;16.00;;;6.45;;
33593;SDS011;19920;52.242;20.940;2023-01-13T01:55:06;13.02;;;5.70;;
33593;SDS011;19920;52.242;20.940;2023-01-13T01:57:46;14.15;;;5.90;;
33593;SDS011;19920;52.242;20.940;2023-01-13T02:00:13;17.23;;;6.00;;
33593;SDS011;19920;52.242;20.940;2023-01-13T02:02:40;11.18;;;5.93;;
33593;SDS011;19920;52.242;20.940;2023-01-13T02:05:09;13.20;;;5.90;;
33593;SDS011;19920;52.242;20.940;2023-01-13T02:07:35;16.30;;;5.60;;
33593;SDS011;19920;52.242;20.940;2023-01-13T02:10:07;10.07;;;5.85;;
33593;SDS011;19920;52.242;20.940;2023-01-13T02:12:35;14.23;;;5.45;;
33593;SDS011;19920;52.242;20.940;2023-01-13T02:15:02;12.98;;;5.88;;
33593;SDS011;19920;52.242;20.940;2023-01-13T02:32:25;13.32;;;6.32;;
33593;SDS011;19920;52.242;20.940;2023-01-13T02:35:03;13.93;;;5.57;;
33593;SDS011;19920;52.242;20.940;2023-01-13T02:37:45;14.77;;;5.90;;
33593;SDS011;19920;52.242;20.940;2023-01-13T02:43:20;15.88;;;6.32;;
33593;SDS011;19920;52.242;20.940;2023-01-13T02:46:17;13.05;;;6.07;;
33593;SDS011;19920;52.242;20.940;2023-01-13T02:48:47;13.05;;;6.30;;
33593;SDS011;19920;52.242;20.940;2023-01-13T02:51:17;14.77;;;5.88;;
33593;SDS011;19920;52.242;20.940;2023-01-13T02:53:50;13.27;;;6.38;;
33593;SDS011;19920;52.242;20.940;2023-01-13T02:59:04;14.25;;;5.68;;
33593;SDS011;19920;52.242;20.940;2023-01-13T03:01:31;11.23;;;5.57;;
33593;SDS011;19920;52.242;20.940;2023-01-13T03:03:57;14.82;;;5.85;;
33593;SDS011;19920;52.242;20.940;2023-01-13T03:06:30;11.60;;;5.93;;
33593;SDS011;19920;52.242;20.940;2023-01-13T03:09:18;11.23;;;5.43;;
33593;SDS011;19920;52.242;20.940;2023-01-13T03:12:28;15.05;;;6.05;;
33593;SDS011;19920;52.242;20.940;2023-01-13T03:14:56;13.20;;;5.65;;
33593;SDS011;19920;52.242;20.940;2023-01-13T03:20:06;10.52;;;5.13;;
33593;SDS011;19920;52.242;20.940;2023-01-13T03:25:41;11.13;;;5.32;;
33593;SDS011;19920;52.242;20.940;2023-01-13T03:28:19;14.80;;;5.72;;
33593;SDS011;19920;52.242;20.940;2023-01-13T03:30:52;13.05;;;5.55;;
33593;SDS011;19920;52.242;20.940;2023-01-13T03:33:36;10.27;;;5.03;;
33593;SDS011;19920;52.242;20.940;2023-01-13T03:36:25;9.43;;;5.25;;
33593;SDS011;19920;52.242;20.940;2023-01-13T03:38:55;12.40;;;5.32;;
33593;SDS011;19920;52.242;20.940;2023-01-13T03:41:26;14.55;;;6.32;;
33593;SDS011;19920;52.242;20.940;2023-01-13T03:44:10;12.32;;;5.53;;
33593;SDS011;19920;52.242;20.940;2023-01-13T03:46:58;11.82;;;5.55;;
33593;SDS011;19920;52.242;20.940;2023-01-13T03:52:21;10.35;;;4.85;;
33593;SDS011;19920;52.242;20.940;2023-01-13T03:55:02;13.43;;;5.72;;
33593;SDS011;19920;52.242;20.940;2023-01-13T03:57:58;11.90;;;5.00;;
33593;SDS011;19920;52.242;20.940;2023-01-13T04:00:31;15.73;;;5.75;;
33593;SDS011;19920;52.242;20.940;2023-01-13T04:03:12;10.02;;;5.28;;
33593;SDS011;19920;52.242;20.940;2023-01-13T04:05:45;11.45;;;5.80;;
33593;SDS011;19920;52.242;20.940;2023-01-13T04:08:16;11.35;;;5.70;;
33593;SDS011;19920;52.242;20.940;2023-01-13T04:10:57;14.18;;;5.82;;
33593;SDS011;19920;52.242;20.940;2023-01-13T04:13:50;14.05;;;5.35;;
33593;SDS011;19920;52.242;20.940;2023-01-13T04:16:18;14.10;;;6.18;;
33593;SDS011;19920;52.242;20.940;2023-01-13T04:18:43;12.60;;;5.65;;
33593;SDS011;19920;52.242;20.940;2023-01-13T04:21:09;11.88;;;5.95;;
33593;SDS011;19920;52.242;20.940;2023-01-13T04:23:35;10.35;;;5.63;;
33593;SDS011;19920;52.242;20.940;2023-01-13T04:26:00;11.15;;;5.50;;
33593;SDS011;19920;52.242;20.940;2023-01-13T04:28:26;10.13;;;5.57;;
33593;SDS011;19920;52.242;20.940;2023-01-13T04:30:52;11.98;;;5.80;;
33593;SDS011;19920;52.242;20.940;2023-01-13T04:33:18;15.32;;;5.93;;
33593;SDS011;19920;52.242;20.940;2023-01-13T04:35:44;11.70;;;5.57;;
33593;SDS011;19920;52.242;20.940;2023-01-13T04:38:15;9.93;;;5.43;;
33593;SDS011;19920;52.242;20.940;2023-01-13T04:40:42;10.10;;;5.38;;
33593;SDS011;19920;52.242;20.940;2023-01-13T04:43:08;13.95;;;5.95;;
33593;SDS011;19920;52.242;20.940;2023-01-13T04:45:35;13.93;;;5.95;;
33593;SDS011;19920;52.242;20.940;2023-01-13T04:48:01;11.80;;;6.45;;
33593;SDS011;19920;52.242;20.940;2023-01-13T04:50:27;11.40;;;5.43;;
33593;SDS011;19920;52.242;20.940;2023-01-13T04:52:53;12.00;;;5.88;;
33593;SDS011;19920;52.242;20.940;2023-01-13T04:55:19;11.43;;;5.72;;
33593;SDS011;19920;52.242;20.940;2023-01-13T04:57:46;11.43;;;5.93;;
33593;SDS011;19920;52.242;20.940;2023-01-13T05:00:13;15.00;;;5.80;;
33593;SDS011;19920;52.242;20.940;2023-01-13T05:02:41;12.75;;;5.70;;
33593;SDS011;19920;52.242;20.940;2023-01-13T05:05:07;11.70;;;5.53;;
33593;SDS011;19920;52.242;20.940;2023-01-13T05:07:32;7.93;;;4.93;;
33593;SDS011;19920;52.242;20.940;2023-01-13T05:09:58;14.85;;;5.22;;
33593;SDS011;19920;52.242;20.940;2023-01-13T05:12:24;9.13;;;5.03;;
33593;SDS011;19920;52.242;20.940;2023-01-13T05:15:10;10.35;;;5.00;;
33593;SDS011;19920;52.242;20.940;2023-01-13T05:17:56;11.02;;;5.50;;
33593;SDS011;19920;52.242;20.940;2023-01-13T05:20:22;8.70;;;4.57;;
33593;SDS011;19920;52.242;20.940;2023-01-13T05:22:48;10.43;;;4.65;;
33593;SDS011;19920;52.242;20.940;2023-01-13T05:25:32;10.75;;;4.88;;
33593;SDS011;19920;52.242;20.940;2023-01-13T05:28:02;10.45;;;4.60;;
33593;SDS011;19920;52.242;20.940;2023-01-13T05:30:29;13.30;;;5.72;;
33593;SDS011;19920;52.242;20.940;2023-01-13T05:32:56;8.65;;;5.00;;
33593;SDS011;19920;52.242;20.940;2023-01-13T05:35:22;10.18;;;5.10;;
33593;SDS011;19920;52.242;20.940;2023-01-13T05:37:48;13.18;;;4.78;;
33593;SDS011;19920;52.242;20.940;2023-01-13T05:40:16;9.27;;;4.75;;
33593;SDS011;19920;52.242;20.940;2023-01-13T05:43:17;9.13;;;5.13;;
33593;SDS011;19920;52.242;20.940;2023-01-13T05:45:44;10.15;;;4.90;;
33593;SDS011;19920;52.242;20.940;2023-01-13T05:48:13;14.13;;;5.03;;
33593;SDS011;19920;52.242;20.940;2023-01-13T05:50:40;12.13;;;5.13;;
33593;SDS011;19920;52.242;20.940;2023-01-13T05:53:05;11.40;;;5.43;;
33593;SDS011;19920;52.242;20.940;2023-01-13T05:55:31;11.38;;;5.43;;
33593;SDS011;19920;52.242;20.940;2023-01-13T05:57:57;14.32;;;5.72;;
33593;SDS011;19920;52.242;20.940;2023-01-13T06:00:22;10.40;;;5.15;;
33593;SDS011;19920;52.242;20.940;2023-01-13T06:02:48;11.95;;;6.20;;
33593;SDS011;19920;52.242;20.940;2023-01-13T06:05:14;14.55;;;5.68;;
33593;SDS011;19920;52.242;20.940;2023-01-13T06:07:39;9.85;;;5.38;;
33593;SDS011;19920;52.242;20.940;2023-01-13T06:10:05;9.40;;;5.63;;
33593;SDS011;19920;52.242;20.940;2023-01-13T06:12:31;12.23;;;5.55;;
33593;SDS011;19920;52.242;20.940;2023-01-13T06:14:57;12.00;;;5.93;;
33593;SDS011;19920;52.242;20.940;2023-01-13T06:17:23;13.52;;;6.47;;
33593;SDS011;19920;52.242;20.940;2023-01-13T06:19:48;11.13;;;5.40;;
33593;SDS011;19920;52.242;20.940;2023-01-13T06:24:48;10.93;;;5.25;;
33593;SDS011;19920;52.242;20.940;2023-01-13T06:27:15;10.05;;;5.65;;
33593;SDS011;19920;52.242;20.940;2023-01-13T06:29:41;12.98;;;5.55;;
33593;SDS011;19920;52.242;20.940;2023-01-13T06:32:08;15.00;;;6.28;;
33593;SDS011;19920;52.242;20.940;2023-01-13T06:34:40;11.40;;;5.55;;
33593;SDS011;19920;52.242;20.940;2023-01-13T06:37:10;12.07;;;5.82;;
33593;SDS011;19920;52.242;20.940;2023-01-13T06:39:38;9.88;;;5.13;;
33593;SDS011;19920;52.242;20.940;2023-01-13T06:42:04;11.68;;;5.50;;
33593;SDS011;19920;52.242;20.940;2023-01-13T06:44:49;11.68;;;5.35;;
33593;SDS011;19920;52.242;20.940;2023-01-13T06:47:15;9.88;;;5.22;;
33593;SDS011;19920;52.242;20.940;2023-01-13T06:49:41;10.40;;;4.85;;
33593;SDS011;19920;52.242;20.940;2023-01-13T06:52:07;13.20;;;4.88;;
33593;SDS011;19920;52.242;20.940;2023-01-13T06:54:33;14.00;;;5.25;;
33593;SDS011;19920;52.242;20.940;2023-01-13T06:56:59;11.73;;;4.97;;
33593;SDS011;19920;52.242;20.940;2023-01-13T06:59:25;11.13;;;4.82;;
33593;SDS011;19920;52.242;20.940;2023-01-13T07:01:51;9.65;;;4.40;;
33593;SDS011;19920;52.242;20.940;2023-01-13T07:04:16;11.73;;;5.05;;
33593;SDS011;19920;52.242;20.940;2023-01-13T07:06:43;12.15;;;5.00;;
33593;SDS011;19920;52.242;20.940;2023-01-13T07:09:08;11.68;;;4.95;;
33593;SDS011;19920;52.242;20.940;2023-01-13T07:11:34;9.90;;;4.63;;
33593;SDS011;19920;52.242;20.940;2023-01-13T07:14:00;8.10;;;4.50;;
33593;SDS011;19920;52.242;20.940;2023-01-13T07:16:44;10.40;;;4.63;;
33593;SDS011;19920;52.242;20.940;2023-01-13T07:19:10;9.48;;;4.05;;
33593;SDS011;19920;52.242;20.940;2023-01-13T07:21:35;12.00;;;4.50;;
33593;SDS011;19920;52.242;20.940;2023-01-13T07:24:01;9.55;;;4.88;;
33593;SDS011;19920;52.242;20.940;2023-01-13T07:26:27;10.38;;;4.68;;
33593;SDS011;19920;52.242;20.940;2023-01-13T07:28:52;7.03;;;4.30;;
33593;SDS011;19920;52.242;20.940;2023-01-13T07:31:18;10.40;;;4.20;;
33593;SDS011;19920;52.242;20.940;2023-01-13T07:33:55;10.55;;;4.53;;
33593;SDS011;19920;52.242;20.940;2023-01-13T07:36:21;12.77;;;4.28;;
33593;SDS011;19920;52.242;20.940;2023-01-13T07:38:46;10.95;;;4.50;;
33593;SDS011;19920;52.242;20.940;2023-01-13T07:41:12;9.45;;;4.60;;
33593;SDS011;19920;52.242;20.940;2023-01-13T07:43:57;8.40;;;4.70;;
33593;SDS011;19920;52.242;20.940;2023-01-13T07:46:24;8.68;;;4.43;;
33593;SDS011;19920;52.242;20.940;2023-01-13T07:48:49;9.00;;;4.30;;
33593;SDS011;19920;52.242;20.940;2023-01-13T07:51:15;9.88;;;4.38;;
33593;SDS011;19920;52.242;20.940;2023-01-13T07:53:41;11.73;;;4.25;;
33593;SDS011;19920;52.242;20.940;2023-01-13T07:56:07;10.65;;;4.78;;
33593;SDS011;19920;52.242;20.940;2023-01-13T07:58:33;12.27;;;4.97;;
33593;SDS011;19920;52.242;20.940;2023-01-13T08:01:00;8.43;;;4.82;;
33593;SDS011;19920;52.242;20.940;2023-01-13T08:03:32;9.77;;;4.80;;
33593;SDS011;19920;52.242;20.940;2023-01-13T08:05:59;9.32;;;5.55;;
33593;SDS011;19920;52.242;20.940;2023-01-13T08:08:25;7.85;;;4.40;;
33593;SDS011;19920;52.242;20.940;2023-01-13T08:10:50;11.23;;;5.15;;
33593;SDS011;19920;52.242;20.940;2023-01-13T08:13:16;9.95;;;4.78;;
33593;SDS011;19920;52.242;20.940;2023-01-13T08:15:49;8.15;;;4.35;;
33593;SDS011;19920;52.242;20.940;2023-01-13T08:18:17;10.20;;;4.53;;
33593;SDS011;19920;52.242;20.940;2023-01-13T08:20:46;8.57;;;4.43;;
33593;SDS011;19920;52.242;20.940;2023-01-13T08:23:12;9.65;;;4.90;;
33593;SDS011;19920;52.242;20.940;2023-01-13T08:25:38;8.68;;;4.72;;
33593;SDS011;19920;52.242;20.940;2023-01-13T08:28:04;10.93;;;4.57;;
33593;SDS011;19920;52.242;20.940;2023-01-13T08:30:30;10.93;;;4.35;;
33593;SDS011;19920;52.242;20.940;2023-01-13T08:32:55;9.07;;;4.38;;
33593;SDS011;19920;52.242;20.940;2023-01-13T08:35:21;8.45;;;4.00;;
33593;SDS011;19920;52.242;20.940;2023-01-13T08:37:47;11.32;;;4.30;;
33593;SDS011;19920;52.242;20.940;2023-01-13T08:40:14;13.10;;;4.90;;
33593;SDS011;19920;52.242;20.940;2023-01-13T08:42:40;6.90;;;4.00;;
33593;SDS011;19920;52.242;20.940;2023-01-13T08:45:06;8.02;;;4.45;;
33593;SDS011;19920;52.242;20.940;2023-01-13T08:47:33;6.97;;;4.03;;
33593;SDS011;19920;52.242;20.940;2023-01-13T08:49:58;8.68;;;4.32;;
33593;SDS011;19920;52.242;20.940;2023-01-13T08:52:24;8.55;;;4.40;;
33593;SDS011;19920;52.242;20.940;2023-01-13T08:54:50;8.38;;;4.45;;
33593;SDS011;19920;52.242;20.940;2023-01-13T08:57:16;8.93;;;4.53;;
33593;SDS011;19920;52.242;20.940;2023-01-13T08:59:43;8.10;;;4.18;;
33593;SDS011;19920;52.242;20.940;2023-01-13T09:02:11;11.70;;;4.85;;
33593;SDS011;19920;52.242;20.940;2023-01-13T09:04:38;10.02;;;5.00;;
33593;SDS011;19920;52.242;20.940;2023-01-13T09:07:04;8.75;;;4.40;;
33593;SDS011;19920;52.242;20.940;2023-01-13T09:09:29;9.52;;;4.30;;
33593;SDS011;19920;52.242;20.940;2023-01-13T09:11:55;11.80;;;4.50;;
33593;SDS011;19920;52.242;20.940;2023-01-13T09:14:39;6.90;;;4.03;;
33593;SDS011;19920;52.242;20.940;2023-01-13T09:17:05;9.40;;;4.72;;
33593;SDS011;19920;52.242;20.940;2023-01-13T09:19:31;9.23;;;4.53;;
33593;SDS011;19920;52.242;20.940;2023-01-13T09:21:57;10.38;;;4.50;;
33593;SDS011;19920;52.242;20.940;2023-01-13T09:24:24;7.82;;;4.25;;
33593;SDS011;19920;52.242;20.940;2023-01-13T09:26:49;8.77;;;3.90;;
33593;SDS011;19920;52.242;20.940;2023-01-13T09:29:16;9.45;;;4.60;;
33593;SDS011;19920;52.242;20.940;2023-01-13T09:31:45;8.88;;;4.60;;
33593;SDS011;19920;52.242;20.940;2023-01-13T09:34:12;8.73;;;4.47;;
33593;SDS011;19920;52.242;20.940;2023-01-13T09:36:58;10.15;;;4.30;;
33593;SDS011;19920;52.242;20.940;2023-01-13T09:39:24;10.48;;;4.93;;
33593;SDS011;19920;52.242;20.940;2023-01-13T09:41:52;9.98;;;4.30;;
33593;SDS011;19920;52.242;20.940;2023-01-13T09:50:16;8.40;;;4.45;;
33593;SDS011;19920;52.242;20.940;2023-01-13T09:52:54;6.68;;;4.30;;
33593;SDS011;19920;52.242;20.940;2023-01-13T09:55:25;6.10;;;3.78;;
33593;SDS011;19920;52.242;20.940;2023-01-13T09:57:59;10.73;;;4.07;;
33593;SDS011;19920;52.242;20.940;2023-01-13T10:00:28;11.45;;;4.50;;
33593;SDS011;19920;52.242;20.940;2023-01-13T10:05:37;7.57;;;3.65;;
33593;SDS011;19920;52.242;20.940;2023-01-13T10:08:11;6.75;;;4.25;;
33593;SDS011;19920;52.242;20.940;2023-01-13T10:10:45;11.85;;;4.53;;
33593;SDS011;19920;52.242;20.940;2023-01-13T10:16:35;6.75;;;3.75;;
33593;SDS011;19920;52.242;20.940;2023-01-13T10:19:04;9.30;;;4.30;;
33593;SDS011;19920;52.242;20.940;2023-01-13T10:24:15;9.00;;;4.18;;
33593;SDS011;19920;52.242;20.940;2023-01-13T10:27:05;7.20;;;4.05;;
33593;SDS011;19920;52.242;20.940;2023-01-13T10:29:36;6.78;;;3.72;;
33593;SDS011;19920;52.242;20.940;2023-01-13T10:32:02;6.43;;;3.45;;
33593;SDS011;19920;52.242;20.940;2023-01-13T10:34:28;8.32;;;4.28;;
33593;SDS011;19920;52.242;20.940;2023-01-13T10:37:01;7.70;;;3.70;;
33593;SDS011;19920;52.242;20.940;2023-01-13T10:39:43;8.00;;;3.92;;
33593;SDS011;19920;52.242;20.940;2023-01-13T10:42:14;7.28;;;3.90;;
33593;SDS011;19920;52.242;20.940;2023-01-13T10:45:02;8.02;;;3.70;;
33593;SDS011;19920;52.242;20.940;2023-01-13T10:52:56;6.55;;;4.00;;
33593;SDS011;19920;52.242;20.940;2023-01-13T10:55:30;7.35;;;3.47;;
33593;SDS011;19920;52.242;20.940;2023-01-13T10:58:12;7.07;;;3.30;;
33593;SDS011;19920;52.242;20.940;2023-01-13T11:00:42;9.98;;;4.18;;
33593;SDS011;19920;52.242;20.940;2023-01-13T11:08:22;6.13;;;3.50;;
33593;SDS011;19920;52.242;20.940;2023-01-13T11:10:53;6.78;;;3.60;;
33593;SDS011;19920;52.242;20.940;2023-01-13T11:21:38;7.47;;;3.90;;
33593;SDS011;19920;52.242;20.940;2023-01-13T11:24:36;8.10;;;3.83;;
33593;SDS011;19920;52.242;20.940;2023-01-13T11:27:20;8.02;;;4.00;;
33593;SDS011;19920;52.242;20.940;2023-01-13T11:32:19;8.25;;;3.60;;
33593;SDS011;19920;52.242;20.940;2023-01-13T11:34:49;6.65;;;4.25;;
33593;SDS011;19920;52.242;20.940;2023-01-13T11:37:22;7.85;;;3.97;;
33593;SDS011;19920;52.242;20.940;2023-01-13T11:47:44;8.50;;;4.20;;
33593;SDS011;19920;52.242;20.940;2023-01-13T11:50:17;9.27;;;3.90;;
33593;SDS011;19920;52.242;20.940;2023-01-13T11:52:53;7.80;;;4.38;;
33593;SDS011;19920;52.242;20.940;2023-01-13T11:58:43;10.65;;;4.32;;
33593;SDS011;19920;52.242;20.940;2023-01-13T12:01:35;6.10;;;4.07;;
33593;SDS011;19920;52.242;20.940;2023-01-13T12:07:09;8.60;;;4.10;;
33593;SDS011;19920;52.242;20.940;2023-01-13T12:13:14;8.80;;;4.35;;
33593;SDS011;19920;52.242;20.940;2023-01-13T12:16:01;9.23;;;4.15;;
33593;SDS011;19920;52.242;20.940;2023-01-13T12:21:20;7.80;;;4.32;;
33593;SDS011;19920;52.242;20.940;2023-01-13T12:24:05;8.80;;;4.38;;
33593;SDS011;19920;52.242;20.940;2023-01-13T12:26:39;6.32;;;3.60;;
33593;SDS011;19920;52.242;20.940;2023-01-13T12:29:11;6.88;;;4.32;;
33593;SDS011;19920;52.242;20.940;2023-01-13T12:31:42;7.22;;;3.72;;
33593;SDS011;19920;52.242;20.940;2023-01-13T12:34:12;7.10;;;3.88;;
33593;SDS011;19920;52.242;20.940;2023-01-13T12:42:23;6.35;;;3.17;;
33593;SDS011;19920;52.242;20.940;2023-01-13T12:47:42;8.30;;;3.90;;
33593;SDS011;19920;52.242;20.940;2023-01-13T12:52:59;9.68;;;3.83;;
33593;SDS011;19920;52.242;20.940;2023-01-13T12:55:44;9.05;;;4.28;;
33593;SDS011;19920;52.242;20.940;2023-01-13T12:58:15;7.18;;;3.78;;
33593;SDS011;19920;52.242;20.940;2023-01-13T13:05:40;9.80;;;4.40;;
33593;SDS011;19920;52.242;20.940;2023-01-13T13:08:15;9.00;;;5.05;;
33593;SDS011;19920;52.242;20.940;2023-01-13T13:10:54;9.27;;;4.30;;
33593;SDS011;19920;52.242;20.940;2023-01-13T13:13:59;8.57;;;4.82;;
33593;SDS011;19920;52.242;20.940;2023-01-13T13:24:30;7.78;;;4.50;;
33593;SDS011;19920;52.242;20.940;2023-01-13T13:27:10;10.07;;;4.10;;
33593;SDS011;19920;52.242;20.940;2023-01-13T13:32:22;7.65;;;4.32;;
33593;SDS011;19920;52.242;20.940;2023-01-13T13:34:54;8.75;;;4.13;;
33593;SDS011;19920;52.242;20.940;2023-01-13T13:41:01;7.70;;;4.18;;
33593;SDS011;19920;52.242;20.940;2023-01-13T13:43:59;7.40;;;4.15;;
33593;SDS011;19920;52.242;20.940;2023-01-13T13:46:47;8.52;;;3.75;;
33593;SDS011;19920;52.242;20.940;2023-01-13T13:49:17;12.93;;;4.38;;
33593;SDS011;19920;52.242;20.940;2023-01-13T13:51:51;7.45;;;3.65;;
33593;SDS011;19920;52.242;20.940;2023-01-13T13:54:28;8.65;;;4.28;;
33593;SDS011;19920;52.242;20.940;2023-01-13T13:56:55;7.03;;;3.97;;
33593;SDS011;19920;52.242;20.940;2023-01-13T13:59:24;7.18;;;3.88;;
33593;SDS011;19920;52.242;20.940;2023-01-13T14:01:53;7.47;;;3.42;;
33593;SDS011;19920;52.242;20.940;2023-01-13T14:04:36;6.68;;;3.75;;
33593;SDS011;19920;52.242;20.940;2023-01-13T14:07:13;7.20;;;3.50;;
33593;SDS011;19920;52.242;20.940;2023-01-13T14:09:54;10.68;;;3.72;;
33593;SDS011;19920;52.242;20.940;2023-01-13T14:12:24;9.60;;;3.83;;
33593;SDS011;19920;52.242;20.940;2023-01-13T14:14:51;9.30;;;3.58;;
33593;SDS011;19920;52.242;20.940;2023-01-13T14:19:54;8.02;;;4.00;;
33593;SDS011;19920;52.242;20.940;2023-01-13T14:22:31;9.38;;;3.85;;
33593;SDS011;19920;52.242;20.940;2023-01-13T14:24:57;8.25;;;4.38;;
33593;SDS011;19920;52.242;20.940;2023-01-13T14:27:26;11.13;;;4.63;;
33593;SDS011;19920;52.242;20.940;2023-01-13T14:29:53;12.80;;;4.25;;
33593;SDS011;19920;52.242;20.940;2023-01-13T14:32:23;10.40;;;4.57;;
33593;SDS011;19920;52.242;20.940;2023-01-13T14:34:53;12.95;;;5.00;;
33593;SDS011;19920;52.242;20.940;2023-01-13T14:39:53;10.00;;;4.15;;
33593;SDS011;19920;52.242;20.940;2023-01-13T14:42:19;6.90;;;3.95;;
33593;SDS011;19920;52.242;20.940;2023-01-13T14:44:46;6.75;;;4.10;;
33593;SDS011;19920;52.242;20.940;2023-01-13T14:47:27;10.75;;;4.57;;
33593;SDS011;19920;52.242;20.940;2023-01-13T14:50:38;7.95;;;4.03;;
33593;SDS011;19920;52.242;20.940;2023-01-13T14:52:49;9.23;;;4.10;;
33593;SDS011;19920;52.242;20.940;2023-01-13T14:55:26;7.53;;;4.40;;
33593;SDS011;19920;52.242;20.940;2023-01-13T14:57:52;9.98;;;4.85;;
33593;SDS011;19920;52.242;20.940;2023-01-13T15:00:38;9.70;;;4.35;;
33593;SDS011;19920;52.242;20.940;2023-01-13T15:03:04;10.95;;;5.00;;
33593;SDS011;19920;52.242;20.940;2023-01-13T15:05:36;7.32;;;4.43;;
33593;SDS011;19920;52.242;20.940;2023-01-13T15:13:43;8.82;;;4.47;;
33593;SDS011;19920;52.242;20.940;2023-01-13T15:16:17;11.82;;;5.15;;
33593;SDS011;19920;52.242;20.940;2023-01-13T15:18:49;9.52;;;4.53;;
33593;SDS011;19920;52.242;20.940;2023-01-13T15:21:15;11.30;;;5.20;;
33593;SDS011;19920;52.242;20.940;2023-01-13T15:23:42;8.95;;;4.55;;
33593;SDS011;19920;52.242;20.940;2023-01-13T15:26:16;9.82;;;4.88;;
33593;SDS011;19920;52.242;20.940;2023-01-13T15:28:53;9.27;;;4.57;;
33593;SDS011;19920;52.242;20.940;2023-01-13T15:31:21;9.07;;;4.45;;
33593;SDS011;19920;52.242;20.940;2023-01-13T15:33:48;8.40;;;4.22;;
33593;SDS011;19920;52.242;20.940;2023-01-13T15:38:53;8.10;;;4.50;;
33593;SDS011;19920;52.242;20.940;2023-01-13T15:41:19;10.02;;;4.38;;
33593;SDS011;19920;52.242;20.940;2023-01-13T15:44:06;8.23;;;4.47;;
33593;SDS011;19920;52.242;20.940;2023-01-13T15:46:52;7.13;;;4.30;;
33593;SDS011;19920;52.242;20.940;2023-01-13T15:49:33;8.60;;;4.47;;
33593;SDS011;19920;52.242;20.940;2023-01-13T15:54:42;13.07;;;4.85;;
33593;SDS011;19920;52.242;20.940;2023-01-13T15:57:11;10.80;;;4.93;;
33593;SDS011;19920;52.242;20.940;2023-01-13T15:59:46;10.38;;;4.97;;
33593;SDS011;19920;52.242;20.940;2023-01-13T16:02:13;12.25;;;5.55;;
33593;SDS011;19920;52.242;20.940;2023-01-13T16:04:42;9.02;;;5.05;;
33593;SDS011;19920;52.242;20.940;2023-01-13T16:07:12;8.52;;;5.00;;
33593;SDS011;19920;52.242;20.940;2023-01-13T16:09:40;10.32;;;5.30;;
33593;SDS011;19920;52.242;20.940;2023-01-13T16:12:06;11.55;;;5.20;;
33593;SDS011;19920;52.242;20.940;2023-01-13T16:14:32;9.98;;;5.03;;
33593;SDS011;19920;52.242;20.940;2023-01-13T16:16:57;8.15;;;5.13;;
33593;SDS011;19920;52.242;20.940;2023-01-13T16:19:24;11.52;;;5.80;;
33593;SDS011;19920;52.242;20.940;2023-01-13T16:21:50;8.82;;;5.18;;
33593;SDS011;19920;52.242;20.940;2023-01-13T16:24:17;11.18;;;5.65;;
33593;SDS011;19920;52.242;20.940;2023-01-13T16:26:42;10.90;;;5.55;;
33593;SDS011;19920;52.242;20.940;2023-01-13T16:29:08;11.77;;;5.78;;
33593;SDS011;19920;52.242;20.940;2023-01-13T16:31:36;12.00;;;5.75;;
33593;SDS011;19920;52.242;20.940;2023-01-13T16:34:02;12.82;;;5.50;;
33593;SDS011;19920;52.242;20.940;2023-01-13T16:36:29;10.15;;;5.57;;
33593;SDS011;19920;52.242;20.940;2023-01-13T16:38:58;10.33;;;5.40;;
33593;SDS011;19920;52.242;20.940;2023-01-13T16:41:25;12.50;;;6.32;;
33593;SDS011;19920;52.242;20.940;2023-01-13T16:43:51;9.57;;;5.25;;
33593;SDS011;19920;52.242;20.940;2023-01-13T16:46:27;9.40;;;5.38;;
33593;SDS011;19920;52.242;20.940;2023-01-13T16:48:54;10.27;;;5.30;;
33593;SDS011;19920;52.242;20.940;2023-01-13T16:51:21;12.07;;;5.57;;
33593;SDS011;19920;52.242;20.940;2023-01-13T16:53:49;10.88;;;5.88;;
33593;SDS011;19920;52.242;20.940;2023-01-13T16:58:52;9.55;;;4.63;;
33593;SDS011;19920;52.242;20.940;2023-01-13T17:03:58;10.50;;;5.40;;
33593;SDS011;19920;52.242;20.940;2023-01-13T17:06:30;11.00;;;5.38;;
33593;SDS011;19920;52.242;20.940;2023-01-13T17:09:06;9.75;;;5.13;;
33593;SDS011;19920;52.242;20.940;2023-01-13T17:11:50;11.27;;;5.00;;